Time;durP1;ratioP1;P1;durP2;ratioP2;P2;SDS_P1;SDS_P2;PMS_P1;PMS_P2;Temp;Humidity;BMP_temperature;BMP_pressure;BME280_temperature;BME280_humidity;BME280_pressure;Samples;Min_cycle;Max_cycle;Signal;HPM_P1;HPM_P2
2023/01/03 00:01:11;;;;;;;;;;;20.80;52.30;;;;;;6241917;22;43551;-64
2023/01/03 00:03:38;;;;;;;;;;;20.80;52.40;;;;;;6215951;22;43368;-64
2023/01/03 00:06:13;;;;;;;;;;;20.80;52.40;;;;;;6243174;22;43543;-64
2023/01/03 00:08:40;;;;;;;;;;;20.70;52.30;;;;;;6242037;22;43895;-64
2023/01/03 00:11:12;;;;;;;;;;;20.70;52.40;;;;;;6242905;22;43416;-63
2023/01/03 00:13:40;;;;;;;;;;;20.70;52.30;;;;;;6243507;22;43352;-64
2023/01/03 00:16:14;;;;;;;;;;;20.70;52.40;;;;;;6242578;22;43380;-63
2023/01/03 00:18:42;;;;;;;;;;;20.70;52.40;;;;;;6273208;22;43776;-63
2023/01/03 00:21:09;;;;;;;;;;;20.70;52.50;;;;;;6273633;22;43694;-64
2023/01/03 00:23:37;;;;;;;;;;;20.70;52.30;;;;;;6273276;22;43426;-64
2023/01/03 00:26:08;;;;;;;;;;;20.70;52.40;;;;;;6273885;22;43386;-64
2023/01/03 00:28:36;;;;;;;;;;;20.70;52.40;;;;;;6272913;22;43887;-63
2023/01/03 00:31:07;;;;;;;;;;;20.70;52.40;;;;;;6273493;22;43436;-63
2023/01/03 00:33:35;;;;;;;;;;;20.60;52.30;;;;;;6274143;22;43427;-64
2023/01/03 00:36:03;;;;;;;;;;;20.60;52.30;;;;;;6273267;22;43459;-64
2023/01/03 00:38:30;;;;;;;;;;;20.60;52.30;;;;;;6273171;22;45301;-64
2023/01/03 00:41:12;;;;;;;;;;;20.60;52.30;;;;;;6273888;22;43375;-64
2023/01/03 00:43:40;;;;;;;;;;;20.60;52.30;;;;;;6273450;22;43411;-64
2023/01/03 00:46:08;;;;;;;;;;;20.60;52.30;;;;;;6273701;22;43402;-64
2023/01/03 00:48:35;;;;;;;;;;;20.60;52.30;;;;;;6273270;22;43994;-64
2023/01/03 00:51:04;;;;;;;;;;;20.60;52.40;;;;;;6272649;22;43394;-64
2023/01/03 00:53:32;;;;;;;;;;;20.60;52.30;;;;;;6273664;22;43427;-64
2023/01/03 00:56:03;;;;;;;;;;;20.60;52.40;;;;;;6246990;22;43432;-64
2023/01/03 00:58:31;;;;;;;;;;;20.50;52.40;;;;;;6272663;22;43923;-63
2023/01/03 01:01:08;;;;;;;;;;;20.50;52.40;;;;;;6273707;22;43483;-64
2023/01/03 01:03:37;;;;;;;;;;;20.50;52.40;;;;;;6273306;22;43369;-64
2023/01/03 01:06:28;;;;;;;;;;;20.50;52.40;;;;;;6273803;22;43455;-64
2023/01/03 01:08:57;;;;;;;;;;;20.50;52.50;;;;;;6273119;22;44627;-64
2023/01/03 01:11:25;;;;;;;;;;;20.50;52.40;;;;;;6272897;22;43371;-64
2023/01/03 01:13:53;;;;;;;;;;;20.50;52.40;;;;;;6273763;22;43337;-64
2023/01/03 01:16:22;;;;;;;;;;;20.50;52.40;;;;;;6273472;22;43439;-63
2023/01/03 01:18:52;;;;;;;;;;;20.40;52.30;;;;;;6272050;22;43749;-64
2023/01/03 01:21:24;;;;;;;;;;;20.40;52.40;;;;;;6273766;22;43652;-64
2023/01/03 01:23:52;;;;;;;;;;;20.40;52.30;;;;;;6274935;22;43439;-64
2023/01/03 01:26:23;;;;;;;;;;;20.40;52.40;;;;;;6274724;22;43474;-64
2023/01/03 01:28:51;;;;;;;;;;;20.40;52.40;;;;;;6274539;22;44934;-63
2023/01/03 01:31:19;;;;;;;;;;;20.40;52.40;;;;;;6274237;22;43361;-64
2023/01/03 01:33:48;;;;;;;;;;;20.40;52.40;;;;;;6273525;22;43407;-64
2023/01/03 01:36:20;;;;;;;;;;;20.30;52.30;;;;;;6274967;22;43397;-63
2023/01/03 01:38:51;;;;;;;;;;;20.30;52.30;;;;;;6273475;22;43748;-64
2023/01/03 01:44:36;;;;;;;;;;;20.30;52.40;;;;;;6274883;22;43378;-64
2023/01/03 01:44:37;;;;;;;;;;;20.30;52.40;;;;;;6274791;22;43508;-64
2023/01/03 01:47:10;;;;;;;;;;;20.30;52.40;;;;;;6273470;22;43469;-64
2023/01/03 01:49:37;;;;;;;;;;;20.30;52.40;;;;;;6246889;22;43854;-64
2023/01/03 01:52:06;;;;;;;;;;;20.30;52.40;;;;;;6274016;22;43441;-64
2023/01/03 01:54:33;;;;;;;;;;;20.20;52.40;;;;;;6273954;22;43368;-63
2023/01/03 01:57:00;;;;;;;;;;;20.20;52.40;;;;;;6274298;22;43489;-64
2023/01/03 01:59:28;;;;;;;;;;;20.20;52.40;;;;;;6274485;22;44762;-64
2023/01/03 02:01:55;;;;;;;;;;;20.20;52.40;;;;;;6273716;22;43256;-64
2023/01/03 02:04:24;;;;;;;;;;;20.20;52.40;;;;;;6274722;22;43491;-64
2023/01/03 02:06:52;;;;;;;;;;;20.20;52.50;;;;;;6273306;22;43408;-64
2023/01/03 02:09:20;;;;;;;;;;;20.20;52.50;;;;;;6272977;22;44102;-64
2023/01/03 02:13:04;;;;;;;;;;;20.20;52.40;;;;;;6274249;22;43288;-64
2023/01/03 02:15:15;;;;;;;;;;;20.20;52.40;;;;;;6273804;22;43426;-64
2023/01/03 02:17:48;;;;;;;;;;;20.10;52.40;;;;;;6149457;23;43576;-64
2023/01/03 02:20:23;;;;;;;;;;;20.20;52.50;;;;;;6255199;22;44693;-64
2023/01/03 02:23:09;;;;;;;;;;;20.10;52.50;;;;;;6273451;22;43503;-64
2023/01/03 02:25:42;;;;;;;;;;;20.10;52.50;;;;;;6274971;22;43458;-64
2023/01/03 02:28:28;;;;;;;;;;;20.10;52.50;;;;;;6273689;22;43426;-64
2023/01/03 02:31:02;;;;;;;;;;;20.10;52.50;;;;;;6274404;22;43846;-63
2023/01/03 02:33:38;;;;;;;;;;;20.10;52.50;;;;;;6274980;22;43440;-63
2023/01/03 02:36:17;;;;;;;;;;;20.10;52.50;;;;;;6274139;22;43397;-64
2023/01/03 02:38:49;;;;;;;;;;;20.10;52.50;;;;;;6274605;22;43410;-64
2023/01/03 02:41:22;;;;;;;;;;;20.00;52.60;;;;;;6247327;22;44036;-64
2023/01/03 02:43:52;;;;;;;;;;;20.00;52.60;;;;;;6273908;22;43452;-64
2023/01/03 02:46:23;;;;;;;;;;;20.00;52.60;;;;;;6274980;22;43311;-64
2023/01/03 02:49:16;;;;;;;;;;;20.00;52.60;;;;;;6274456;22;43538;-64
2023/01/03 02:51:47;;;;;;;;;;;20.00;52.60;;;;;;6268981;22;43805;-64
2023/01/03 02:54:17;;;;;;;;;;;20.00;52.60;;;;;;6274505;22;43379;-64
2023/01/03 02:56:51;;;;;;;;;;;20.00;52.60;;;;;;6274381;22;43766;-63
2023/01/03 02:59:27;;;;;;;;;;;20.00;53.20;;;;;;6246677;22;43558;-64
2023/01/03 03:01:54;;;;;;;;;;;19.90;52.60;;;;;;6272584;22;44196;-64
2023/01/03 03:04:22;;;;;;;;;;;19.90;52.70;;;;;;6273987;22;43397;-64
2023/01/03 03:07:18;;;;;;;;;;;19.90;52.70;;;;;;6274348;22;43331;-64
2023/01/03 03:13:34;;;;;;;;;;;19.80;52.80;;;;;;6274111;22;44951;-64
2023/01/03 03:15:32;;;;;;;;;;;19.80;52.90;;;;;;6254755;22;43502;-64
2023/01/03 03:18:04;;;;;;;;;;;19.80;52.80;;;;;;6273279;22;43404;-63
2023/01/03 03:26:11;;;;;;;;;;;19.70;52.90;;;;;;6273547;22;43433;-64
2023/01/03 03:28:42;;;;;;;;;;;19.80;52.90;;;;;;6274385;22;43422;-64
2023/01/03 03:31:41;;;;;;;;;;;19.70;52.90;;;;;;6274151;22;43431;-63
2023/01/03 03:34:09;;;;;;;;;;;19.70;52.90;;;;;;6206402;22;44686;-64
2023/01/03 03:36:36;;;;;;;;;;;19.70;52.90;;;;;;6274014;22;43408;-64
2023/01/03 03:39:05;;;;;;;;;;;19.70;52.90;;;;;;6272843;22;43488;-63
2023/01/03 03:47:20;;;;;;;;;;;19.70;52.90;;;;;;6273048;22;43428;-64
2023/01/03 03:49:50;;;;;;;;;;;19.70;52.90;;;;;;6274369;22;43419;-64
2023/01/03 03:52:21;;;;;;;;;;;19.70;52.90;;;;;;6273497;22;43429;-64
2023/01/03 03:54:52;;;;;;;;;;;19.70;52.90;;;;;;6274181;22;43829;-64
2023/01/03 03:57:32;;;;;;;;;;;19.60;52.90;;;;;;6274020;22;43442;-64
2023/01/03 04:00:09;;;;;;;;;;;19.60;52.90;;;;;;6273077;22;43360;-64
2023/01/03 04:02:41;;;;;;;;;;;19.60;52.90;;;;;;6273991;22;43514;-64
2023/01/03 04:05:10;;;;;;;;;;;19.60;52.90;;;;;;6273810;22;44148;-64
2023/01/03 04:07:38;;;;;;;;;;;19.60;52.90;;;;;;6273328;22;43369;-64
2023/01/03 04:10:07;;;;;;;;;;;19.60;52.90;;;;;;6273536;22;43403;-64
2023/01/03 04:12:35;;;;;;;;;;;19.60;53.00;;;;;;6273750;22;43909;-63
2023/01/03 04:15:03;;;;;;;;;;;19.60;53.00;;;;;;6273171;22;44653;-63
2023/01/03 04:17:31;;;;;;;;;;;19.60;53.00;;;;;;6273436;22;43418;-63
2023/01/03 04:19:58;;;;;;;;;;;19.50;52.90;;;;;;6274132;22;43434;-64
2023/01/03 04:22:25;;;;;;;;;;;19.50;52.90;;;;;;6273432;22;43515;-64
2023/01/03 04:24:53;;;;;;;;;;;19.50;53.00;;;;;;6273446;22;43741;-64
2023/01/03 04:27:20;;;;;;;;;;;19.50;53.10;;;;;;6273730;22;43288;-64
2023/01/03 04:29:48;;;;;;;;;;;19.50;53.00;;;;;;6273049;22;43433;-64
2023/01/03 04:32:15;;;;;;;;;;;19.40;53.00;;;;;;6273539;22;43493;-64
2023/01/03 04:34:42;;;;;;;;;;;19.50;53.10;;;;;;6273007;22;43870;-64
2023/01/03 04:37:10;;;;;;;;;;;19.40;53.00;;;;;;6246735;22;43377;-64
2023/01/03 04:39:37;;;;;;;;;;;19.50;53.00;;;;;;6273489;22;43413;-64
2023/01/03 04:44:00;;;;;;;;;;;19.40;53.00;;;;;;6273181;22;43402;-63
2023/01/03 04:44:53;;;;;;;;;;;19.40;53.10;;;;;;6273052;22;44856;-63
2023/01/03 04:47:20;;;;;;;;;;;19.40;53.10;;;;;;6273520;22;43574;-64
2023/01/03 04:49:47;;;;;;;;;;;19.40;53.10;;;;;;6272622;22;43485;-64
2023/01/03 04:52:15;;;;;;;;;;;19.40;53.10;;;;;;6273799;22;43440;-64
2023/01/03 04:54:42;;;;;;;;;;;19.40;53.00;;;;;;6273629;22;43759;-64
2023/01/03 04:57:10;;;;;;;;;;;19.40;53.10;;;;;;6272421;22;43295;-64
2023/01/03 04:59:37;;;;;;;;;;;19.40;53.10;;;;;;6272914;22;43413;-63
2023/01/03 05:02:04;;;;;;;;;;;19.30;53.10;;;;;;6274282;22;43402;-64
2023/01/03 05:04:33;;;;;;;;;;;19.30;53.00;;;;;;6272984;22;44898;-64
2023/01/03 05:07:00;;;;;;;;;;;19.30;53.10;;;;;;6273309;22;43432;-64
2023/01/03 05:09:28;;;;;;;;;;;19.30;53.20;;;;;;6273513;22;43417;-64
2023/01/03 05:11:55;;;;;;;;;;;19.30;53.10;;;;;;6273175;22;43474;-64
2023/01/03 05:14:23;;;;;;;;;;;19.30;53.20;;;;;;6273434;22;43743;-64
2023/01/03 05:16:50;;;;;;;;;;;19.20;53.10;;;;;;6272451;22;43577;-64
2023/01/03 05:19:19;;;;;;;;;;;19.20;53.10;;;;;;6273176;22;43367;-64
2023/01/03 05:25:48;;;;;;;;;;;19.20;53.10;;;;;;6272389;22;43744;-64
2023/01/03 05:27:22;;;;;;;;;;;19.20;53.10;;;;;;6273335;22;43447;-64
2023/01/03 05:29:51;;;;;;;;;;;19.20;53.10;;;;;;6273555;22;43534;-64
2023/01/03 05:32:18;;;;;;;;;;;19.20;53.20;;;;;;6244827;22;43407;-64
2023/01/03 05:34:45;;;;;;;;;;;19.20;53.10;;;;;;6273244;22;44010;-64
2023/01/03 05:37:13;;;;;;;;;;;19.20;53.20;;;;;;6272765;22;43478;-64
2023/01/03 05:39:40;;;;;;;;;;;19.20;53.10;;;;;;6272192;22;43452;-64
2023/01/03 05:42:08;;;;;;;;;;;19.10;53.10;;;;;;6273207;22;43405;-64
2023/01/03 05:44:35;;;;;;;;;;;19.10;53.10;;;;;;6273517;22;43770;-64
2023/01/03 05:47:04;;;;;;;;;;;19.10;53.20;;;;;;6272176;22;43764;-63
2023/01/03 05:49:33;;;;;;;;;;;19.10;53.20;;;;;;6272581;22;43392;-64
2023/01/03 05:52:00;;;;;;;;;;;19.10;53.20;;;;;;6272519;22;43564;-64
2023/01/03 05:54:28;;;;;;;;;;;19.10;53.20;;;;;;6273505;22;44911;-64
2023/01/03 05:56:55;;;;;;;;;;;19.10;53.20;;;;;;6273219;22;43583;-63
2023/01/03 05:59:22;;;;;;;;;;;19.00;53.20;;;;;;6271722;22;43300;-63
2023/01/03 06:01:50;;;;;;;;;;;19.00;53.20;;;;;;6272313;22;43438;-64
2023/01/03 06:04:17;;;;;;;;;;;19.00;53.30;;;;;;6272197;22;44937;-63
2023/01/03 06:06:46;;;;;;;;;;;19.00;53.30;;;;;;6273055;22;43712;-63
2023/01/03 06:09:14;;;;;;;;;;;19.00;53.30;;;;;;6274055;22;43383;-64
2023/01/03 06:11:41;;;;;;;;;;;19.00;53.30;;;;;;6274178;22;43438;-64
2023/01/03 06:14:08;;;;;;;;;;;19.00;53.30;;;;;;6273605;22;44688;-63
2023/01/03 06:19:23;;;;;;;;;;;19.00;54.10;;;;;;6273509;22;43415;-64
2023/01/03 06:21:51;;;;;;;;;;;18.90;53.40;;;;;;6272969;22;43433;-64
2023/01/03 06:24:18;;;;;;;;;;;19.00;53.30;;;;;;6274167;22;43843;-64
2023/01/03 06:26:45;;;;;;;;;;;19.00;53.30;;;;;;6274090;22;43780;-64
2023/01/03 06:29:12;;;;;;;;;;;19.00;53.20;;;;;;6273257;22;43355;-64
2023/01/03 06:31:40;;;;;;;;;;;19.00;53.10;;;;;;6274091;22;43464;-64
2023/01/03 06:34:07;;;;;;;;;;;19.00;53.00;;;;;;6273520;22;44923;-64
2023/01/03 06:36:36;;;;;;;;;;;19.00;53.00;;;;;;6274166;22;43416;-64
2023/01/03 06:39:03;;;;;;;;;;;19.00;53.00;;;;;;6274152;22;43379;-64
2023/01/03 06:41:30;;;;;;;;;;;19.00;53.00;;;;;;6273546;22;43464;-64
2023/01/03 06:43:58;;;;;;;;;;;19.00;53.00;;;;;;6246808;22;44636;-64
2023/01/03 06:54:48;;;;;;;;;;;19.00;52.90;;;;;;6273984;22;43876;-64
2023/01/03 06:57:16;;;;;;;;;;;19.00;52.90;;;;;;6269647;22;43364;-64
2023/01/03 06:59:53;;;;;;;;;;;19.00;53.00;;;;;;6273940;22;43458;-65
2023/01/03 07:02:22;;;;;;;;;;;19.00;53.10;;;;;;6272934;22;43494;-65
2023/01/03 07:04:49;;;;;;;;;;;19.00;53.10;;;;;;6273833;22;44782;-64
2023/01/03 07:07:17;;;;;;;;;;;18.90;53.20;;;;;;6272821;22;43767;-64
2023/01/03 07:09:44;;;;;;;;;;;18.90;53.20;;;;;;6272165;22;43312;-63
2023/01/03 07:14:57;;;;;;;;;;;18.90;53.20;;;;;;6274110;22;44010;-65
2023/01/03 07:17:25;;;;;;;;;;;18.90;53.40;;;;;;6272856;22;43985;-63
2023/01/03 07:19:52;;;;;;;;;;;18.80;53.30;;;;;;6272285;22;43341;-65
2023/01/03 07:22:20;;;;;;;;;;;18.80;53.40;;;;;;6273749;22;43638;-64
2023/01/03 07:24:47;;;;;;;;;;;18.80;53.40;;;;;;6272883;22;43854;-65
2023/01/03 07:27:15;;;;;;;;;;;18.80;53.40;;;;;;6273736;22;43320;-65
2023/01/03 07:29:42;;;;;;;;;;;18.80;53.40;;;;;;6273874;22;43864;-63
2023/01/03 07:32:10;;;;;;;;;;;18.80;53.40;;;;;;6272547;22;43434;-64
2023/01/03 07:34:38;;;;;;;;;;;18.80;53.40;;;;;;6273714;22;44855;-65
2023/01/03 07:37:05;;;;;;;;;;;18.80;53.40;;;;;;6273139;22;43761;-65
2023/01/03 07:39:32;;;;;;;;;;;18.80;53.40;;;;;;6272427;22;43415;-64
2023/01/03 07:44:45;;;;;;;;;;;18.80;53.40;;;;;;6273147;22;43737;-65
2023/01/03 07:47:13;;;;;;;;;;;18.80;53.40;;;;;;6273419;22;43460;-64
2023/01/03 07:49:40;;;;;;;;;;;18.80;53.40;;;;;;6273356;22;43440;-64
2023/01/03 07:52:08;;;;;;;;;;;18.80;53.40;;;;;;6272535;22;43407;-64
2023/01/03 07:54:35;;;;;;;;;;;18.80;53.30;;;;;;6273474;22;44988;-64
2023/01/03 07:57:02;;;;;;;;;;;18.80;53.30;;;;;;6273570;22;43495;-65
2023/01/03 07:59:29;;;;;;;;;;;18.80;53.30;;;;;;6272870;22;43395;-64
2023/01/03 08:01:57;;;;;;;;;;;18.80;53.20;;;;;;6274305;22;43513;-65
2023/01/03 08:04:24;;;;;;;;;;;18.80;53.20;;;;;;6273930;22;43818;-65
2023/01/03 08:06:52;;;;;;;;;;;18.80;53.20;;;;;;6272247;22;43419;-65
2023/01/03 08:14:51;;;;;;;;;;;18.80;53.40;;;;;;6272417;22;44913;-66
2023/01/03 08:17:18;;;;;;;;;;;18.70;53.40;;;;;;6273675;22;43509;-69
2023/01/03 08:19:45;;;;;;;;;;;18.70;53.40;;;;;;6273373;22;43502;-67
2023/01/03 08:22:13;;;;;;;;;;;18.70;53.60;;;;;;6273553;22;43411;-67
2023/01/03 08:24:40;;;;;;;;;;;18.70;53.60;;;;;;6245922;22;44890;-67
2023/01/03 08:27:07;;;;;;;;;;;18.70;53.50;;;;;;6245102;22;43363;-67
2023/01/03 08:29:35;;;;;;;;;;;18.70;53.40;;;;;;6273386;22;43383;-68
2023/01/03 08:32:02;;;;;;;;;;;18.80;53.30;;;;;;6245464;22;43561;-70
2023/01/03 08:34:35;;;;;;;;;;;18.80;53.30;;;;;;6242915;22;44591;-68
2023/01/03 08:37:11;;;;;;;;;;;18.90;53.30;;;;;;6271925;22;43398;-68
2023/01/03 08:39:45;;;;;;;;;;;19.00;53.20;;;;;;6246235;22;43449;-67
2023/01/03 08:42:15;;;;;;;;;;;19.10;53.00;;;;;;6245122;22;43460;-67
2023/01/03 08:44:45;;;;;;;;;;;19.20;53.10;;;;;;6273031;22;43782;-68
2023/01/03 08:47:13;;;;;;;;;;;19.20;52.80;;;;;;6272673;22;43359;-67
2023/01/03 08:49:40;;;;;;;;;;;19.40;52.80;;;;;;6272140;22;43402;-67
2023/01/03 08:52:08;;;;;;;;;;;19.50;52.70;;;;;;6273112;22;43488;-66
2023/01/03 08:54:35;;;;;;;;;;;19.60;52.70;;;;;;6272869;22;43740;-67
2023/01/03 08:57:02;;;;;;;;;;;19.70;52.60;;;;;;6272144;22;43777;-67
2023/01/03 08:59:30;;;;;;;;;;;19.80;52.30;;;;;;6272727;22;43416;-66
2023/01/03 09:01:58;;;;;;;;;;;19.80;52.20;;;;;;6272092;22;43530;-66
2023/01/03 09:04:26;;;;;;;;;;;20.00;52.20;;;;;;6273380;22;43909;-67
2023/01/03 09:06:53;;;;;;;;;;;20.10;52.10;;;;;;6245672;22;44008;-67
2023/01/03 09:09:20;;;;;;;;;;;20.20;52.00;;;;;;6272122;22;43412;-67
2023/01/03 09:11:49;;;;;;;;;;;20.40;51.90;;;;;;6272589;22;43428;-67
2023/01/03 09:14:16;;;;;;;;;;;20.50;51.90;;;;;;6272680;22;43968;-67
2023/01/03 09:16:43;;;;;;;;;;;20.50;52.30;;;;;;6271681;22;43544;-68
2023/01/03 09:19:15;;;;;;;;;;;20.60;51.60;;;;;;6273038;22;43913;-68
2023/01/03 09:21:42;;;;;;;;;;;20.70;51.50;;;;;;6272486;22;43398;-66
2023/01/03 09:24:10;;;;;;;;;;;20.70;51.40;;;;;;6271880;22;44004;-68
2023/01/03 09:26:37;;;;;;;;;;;20.80;51.20;;;;;;6272161;22;43378;-68
2023/01/03 09:29:04;;;;;;;;;;;20.90;51.10;;;;;;6272505;22;43377;-65
2023/01/03 09:31:33;;;;;;;;;;;20.90;50.90;;;;;;6271659;22;43398;-66
2023/01/03 09:34:04;;;;;;;;;;;20.90;50.40;;;;;;6272585;22;43752;-67
2023/01/03 09:36:31;;;;;;;;;;;21.00;50.70;;;;;;6272583;22;43301;-66
2023/01/03 09:38:59;;;;;;;;;;;21.10;51.20;;;;;;6271961;22;43375;-65
2023/01/03 09:41:26;;;;;;;;;;;21.20;50.70;;;;;;6272791;22;43492;-65
2023/01/03 09:43:58;;;;;;;;;;;21.30;50.70;;;;;;6273789;22;45097;-65
2023/01/03 09:46:26;;;;;;;;;;;21.30;50.60;;;;;;6274557;22;43434;-66
2023/01/03 09:48:54;;;;;;;;;;;21.40;50.70;;;;;;6273552;22;43443;-65
2023/01/03 10:05:42;;;;;;;;;;;21.90;50.00;;;;;;6273395;22;43553;-63
2023/01/03 10:08:27;;;;;;;;;;;22.00;50.00;;;;;;6273932;22;43357;-64
2023/01/03 10:11:01;;;;;;;;;;;22.00;49.70;;;;;;6273498;22;43360;-63
2023/01/03 10:13:41;;;;;;;;;;;22.00;49.90;;;;;;6273606;22;43466;-64
2023/01/03 10:16:21;;;;;;;;;;;22.00;49.80;;;;;;6273631;22;44907;-63
2023/01/03 10:19:02;;;;;;;;;;;21.90;49.90;;;;;;6242659;22;43364;-65
2023/01/03 10:21:48;;;;;;;;;;;21.90;49.80;;;;;;6242244;22;43405;-65
2023/01/03 10:24:29;;;;;;;;;;;21.80;49.90;;;;;;6242843;22;43449;-65
2023/01/03 10:27:06;;;;;;;;;;;21.80;50.30;;;;;;6243005;22;44024;-64
2023/01/03 10:29:34;;;;;;;;;;;21.70;50.20;;;;;;6215784;22;43474;-63
2023/01/03 10:32:02;;;;;;;;;;;21.70;50.30;;;;;;6242148;22;43396;-62
2023/01/03 10:34:30;;;;;;;;;;;21.70;50.30;;;;;;6242169;22;43445;-62
2023/01/03 10:36:57;;;;;;;;;;;21.60;50.50;;;;;;6242464;22;43649;-62
2023/01/03 10:39:30;;;;;;;;;;;21.60;50.40;;;;;;6242990;22;43414;-62
2023/01/03 10:41:58;;;;;;;;;;;21.60;50.50;;;;;;6241553;22;43480;-62
2023/01/03 10:44:30;;;;;;;;;;;21.60;50.40;;;;;;6243140;22;43423;-62
2023/01/03 10:46:59;;;;;;;;;;;21.60;50.40;;;;;;6242924;22;43598;-62
2023/01/03 10:49:30;;;;;;;;;;;21.60;50.60;;;;;;6242259;22;43411;-62
2023/01/03 10:51:58;;;;;;;;;;;21.60;50.40;;;;;;6215496;22;43435;-62
2023/01/03 10:54:26;;;;;;;;;;;21.60;50.40;;;;;;6241543;22;43372;-62
2023/01/03 10:56:53;;;;;;;;;;;21.60;50.40;;;;;;6242514;22;44764;-63
2023/01/03 10:59:30;;;;;;;;;;;21.60;50.40;;;;;;6242542;22;43359;-63
2023/01/03 11:02:07;;;;;;;;;;;21.50;50.50;;;;;;6242115;22;43385;-63
2023/01/03 11:04:35;;;;;;;;;;;21.50;50.40;;;;;;6216303;22;43372;-63
2023/01/03 11:07:10;;;;;;;;;;;21.50;50.60;;;;;;6242221;22;43828;-63
2023/01/03 11:09:55;;;;;;;;;;;21.50;50.50;;;;;;6241822;22;43353;-64
2023/01/03 11:12:37;;;;;;;;;;;21.40;50.60;;;;;;6242779;22;43458;-63
2023/01/03 11:15:13;;;;;;;;;;;21.40;50.90;;;;;;6242507;22;43439;-63
2023/01/03 11:18:02;;;;;;;;;;;21.40;50.60;;;;;;6258823;22;43889;-63
2023/01/03 11:20:42;;;;;;;;;;;21.30;50.60;;;;;;6273390;22;43982;-63
2023/01/03 11:23:27;;;;;;;;;;;21.30;50.60;;;;;;6272567;22;43379;-64
2023/01/03 11:25:57;;;;;;;;;;;21.30;50.70;;;;;;6273365;22;43444;-64
2023/01/03 11:28:40;;;;;;;;;;;21.20;51.00;;;;;;6246766;22;44061;-67
2023/01/03 11:31:18;;;;;;;;;;;21.20;50.80;;;;;;6272917;22;43366;-66
2023/01/03 11:33:55;;;;;;;;;;;21.10;50.90;;;;;;6273357;22;43403;-66
2023/01/03 11:36:30;;;;;;;;;;;21.10;50.90;;;;;;6273460;22;43525;-66
2023/01/03 11:39:17;;;;;;;;;;;21.10;50.90;;;;;;6247040;22;44041;-65
2023/01/03 11:42:00;;;;;;;;;;;21.00;51.00;;;;;;6245910;22;43471;-65
2023/01/03 11:44:46;;;;;;;;;;;21.00;51.00;;;;;;6273070;22;43390;-65
2023/01/03 11:47:20;;;;;;;;;;;21.00;51.20;;;;;;6273465;22;43450;-64
2023/01/03 11:50:12;;;;;;;;;;;21.00;51.20;;;;;;6273494;22;44568;-64
2023/01/03 11:52:40;;;;;;;;;;;20.90;51.30;;;;;;6272500;22;43348;-65
2023/01/03 11:55:21;;;;;;;;;;;20.90;51.30;;;;;;6273435;22;43389;-65
2023/01/03 11:58:07;;;;;;;;;;;20.80;51.30;;;;;;6269140;22;43411;-66
2023/01/03 12:00:38;;;;;;;;;;;20.80;51.40;;;;;;6244049;22;44149;-66
2023/01/03 12:03:21;;;;;;;;;;;20.80;51.80;;;;;;6272546;22;43403;-65
2023/01/03 12:06:07;;;;;;;;;;;20.70;51.70;;;;;;6270761;22;43407;-66
2023/01/03 12:08:41;;;;;;;;;;;20.70;51.90;;;;;;6271677;22;43511;-65
2023/01/03 12:11:15;;;;;;;;;;;20.60;51.90;;;;;;6271566;22;43928;-65
2023/01/03 12:13:48;;;;;;;;;;;20.60;51.90;;;;;;6273772;22;43715;-65
2023/01/03 12:16:19;;;;;;;;;;;20.60;51.90;;;;;;6273652;22;43415;-65
2023/01/03 12:19:07;;;;;;;;;;;20.50;51.90;;;;;;6242603;22;43427;-64
2023/01/03 12:21:43;;;;;;;;;;;20.50;51.90;;;;;;6221782;22;43542;-63
2023/01/03 12:24:16;;;;;;;;;;;20.50;52.10;;;;;;6242895;22;43381;-63
2023/01/03 12:26:50;;;;;;;;;;;20.50;52.10;;;;;;6241819;22;43474;-63
2023/01/03 12:29:23;;;;;;;;;;;20.50;52.20;;;;;;6243441;22;43466;-65
2023/01/03 12:32:11;;;;;;;;;;;20.40;52.20;;;;;;6242398;22;43751;-67
2023/01/03 12:34:53;;;;;;;;;;;20.40;52.20;;;;;;6240351;22;43402;-65
2023/01/03 12:37:28;;;;;;;;;;;20.40;52.30;;;;;;6242549;22;43392;-65
2023/01/03 12:39:58;;;;;;;;;;;20.30;52.40;;;;;;6242333;22;43430;-65
2023/01/03 12:42:26;;;;;;;;;;;20.30;52.30;;;;;;6241255;22;44095;-65
2023/01/03 12:45:10;;;;;;;;;;;20.20;52.30;;;;;;6242785;22;43390;-66
2023/01/03 12:47:46;;;;;;;;;;;20.20;52.40;;;;;;6238617;22;43350;-65
2023/01/03 12:50:20;;;;;;;;;;;20.10;52.40;;;;;;6214256;22;43543;-66
2023/01/03 12:52:53;;;;;;;;;;;20.20;52.50;;;;;;6242141;22;43542;-66
2023/01/03 12:55:23;;;;;;;;;;;20.10;52.50;;;;;;6241750;22;43391;-65
2023/01/03 12:58:10;;;;;;;;;;;20.10;52.50;;;;;;6241680;22;43443;-66
2023/01/03 13:00:53;;;;;;;;;;;20.10;52.60;;;;;;6243073;22;43538;-66
2023/01/03 13:03:40;;;;;;;;;;;20.00;52.50;;;;;;6242241;22;43951;-66
2023/01/03 13:06:11;;;;;;;;;;;20.00;52.60;;;;;;6215087;22;43444;-66
2023/01/03 13:08:41;;;;;;;;;;;20.00;52.70;;;;;;6241982;22;43383;-66
2023/01/03 13:11:18;;;;;;;;;;;19.90;52.60;;;;;;6214738;22;43425;-66
2023/01/03 13:13:56;;;;;;;;;;;19.90;52.70;;;;;;6242288;22;44003;-66
2023/01/03 13:16:29;;;;;;;;;;;19.90;52.70;;;;;;6241980;22;43424;-66
2023/01/03 13:19:16;;;;;;;;;;;19.90;52.70;;;;;;6274958;22;43308;-66
2023/01/03 13:21:50;;;;;;;;;;;19.80;52.70;;;;;;6274103;22;43423;-66
2023/01/03 13:24:35;;;;;;;;;;;19.80;52.80;;;;;;6274395;22;44606;-66
2023/01/03 13:27:21;;;;;;;;;;;19.80;53.40;;;;;;6274550;22;43431;-66
2023/01/03 13:29:48;;;;;;;;;;;19.80;52.80;;;;;;6273973;22;43411;-66
2023/01/03 13:32:19;;;;;;;;;;;19.70;52.80;;;;;;6274328;22;43540;-66
2023/01/03 13:34:55;;;;;;;;;;;19.70;52.90;;;;;;6274891;22;43767;-66
2023/01/03 13:37:23;;;;;;;;;;;19.70;52.90;;;;;;6246463;22;43481;-66
2023/01/03 13:39:51;;;;;;;;;;;19.70;52.90;;;;;;6247314;22;43420;-67
2023/01/03 13:42:18;;;;;;;;;;;19.60;52.90;;;;;;6246729;22;43447;-66
2023/01/03 13:44:45;;;;;;;;;;;19.60;52.90;;;;;;6273370;22;44004;-66
2023/01/03 13:47:32;;;;;;;;;;;19.60;53.10;;;;;;6274046;22;43346;-66
2023/01/03 13:49:59;;;;;;;;;;;19.60;53.10;;;;;;6247979;22;44045;-66
2023/01/03 13:52:35;;;;;;;;;;;19.60;53.10;;;;;;6273830;22;43429;-66
2023/01/03 13:55:03;;;;;;;;;;;19.60;53.10;;;;;;6274443;22;44610;-66
2023/01/03 13:57:35;;;;;;;;;;;19.60;53.10;;;;;;6246085;22;43396;-68
2023/01/03 14:00:08;;;;;;;;;;;19.60;53.10;;;;;;6274642;22;43483;-66
2023/01/03 14:03:04;;;;;;;;;;;19.60;53.10;;;;;;6247211;22;43455;-66
2023/01/03 14:05:31;;;;;;;;;;;19.50;53.10;;;;;;6273613;22;44046;-66
2023/01/03 14:08:17;;;;;;;;;;;19.50;53.10;;;;;;6247031;22;44623;-66
2023/01/03 14:11:04;;;;;;;;;;;19.50;53.10;;;;;;6247123;22;43390;-66
2023/01/03 14:13:36;;;;;;;;;;;19.50;53.10;;;;;;6273863;22;43451;-66
2023/01/03 14:16:12;;;;;;;;;;;19.50;53.20;;;;;;6273888;22;43781;-66
2023/01/03 14:18:40;;;;;;;;;;;19.50;53.20;;;;;;6240888;22;43430;-66
2023/01/03 14:21:07;;;;;;;;;;;19.50;53.10;;;;;;6242743;22;43354;-66
2023/01/03 14:23:43;;;;;;;;;;;19.50;53.20;;;;;;6243553;22;43388;-66
2023/01/03 14:26:30;;;;;;;;;;;19.40;53.20;;;;;;6241717;22;44020;-66
2023/01/03 14:28:57;;;;;;;;;;;19.40;53.10;;;;;;6242905;22;43392;-66
2023/01/03 14:31:26;;;;;;;;;;;19.40;53.20;;;;;;6243819;22;43328;-66
2023/01/03 14:33:56;;;;;;;;;;;19.40;53.20;;;;;;6240753;22;43453;-66
2023/01/03 14:36:24;;;;;;;;;;;19.30;53.20;;;;;;6241844;22;44143;-66
2023/01/03 14:38:56;;;;;;;;;;;19.40;53.20;;;;;;6216250;22;43329;-66
2023/01/03 14:41:27;;;;;;;;;;;19.30;53.20;;;;;;6215617;22;43328;-66
2023/01/03 14:43:59;;;;;;;;;;;19.30;53.20;;;;;;6241881;22;43585;-66
2023/01/03 14:46:28;;;;;;;;;;;19.30;53.20;;;;;;6242931;22;43915;-66
2023/01/03 14:48:57;;;;;;;;;;;19.30;53.20;;;;;;6243256;22;43383;-66
2023/01/03 14:51:33;;;;;;;;;;;19.20;53.20;;;;;;6243691;22;43405;-66
2023/01/03 14:54:02;;;;;;;;;;;19.30;53.20;;;;;;6240758;22;43886;-66
2023/01/03 14:56:29;;;;;;;;;;;19.30;53.30;;;;;;6241845;22;44652;-66
2023/01/03 14:58:57;;;;;;;;;;;19.20;53.20;;;;;;6215819;22;43448;-66
2023/01/03 15:01:27;;;;;;;;;;;19.20;53.30;;;;;;6240808;22;43424;-66
2023/01/03 15:03:55;;;;;;;;;;;19.20;53.30;;;;;;6243198;22;43434;-66
2023/01/03 15:06:27;;;;;;;;;;;19.20;53.30;;;;;;6241801;22;44648;-66
2023/01/03 15:09:11;;;;;;;;;;;19.20;53.30;;;;;;6242628;22;43410;-66
2023/01/03 15:11:55;;;;;;;;;;;19.20;53.30;;;;;;6241697;22;43527;-64
2023/01/03 15:14:24;;;;;;;;;;;19.20;53.40;;;;;;6241996;22;43497;-66
2023/01/03 15:16:59;;;;;;;;;;;19.20;53.40;;;;;;6248462;22;43998;-66
2023/01/03 15:19:28;;;;;;;;;;;19.20;53.40;;;;;;6247067;22;43460;-66
2023/01/03 15:22:12;;;;;;;;;;;19.10;53.40;;;;;;6246130;22;43783;-66
2023/01/03 15:24:44;;;;;;;;;;;19.10;53.40;;;;;;6247039;22;43515;-66
2023/01/03 15:27:30;;;;;;;;;;;19.10;53.40;;;;;;6246502;22;44017;-66
2023/01/03 15:30:19;;;;;;;;;;;19.10;53.40;;;;;;6246751;22;43432;-66
2023/01/03 15:33:17;;;;;;;;;;;19.10;53.40;;;;;;6221281;22;43497;-66
2023/01/03 15:35:46;;;;;;;;;;;19.10;53.40;;;;;;6246140;22;43475;-66
2023/01/03 15:38:24;;;;;;;;;;;19.10;53.50;;;;;;6246412;22;43843;-66